Terminal Aerodrome Forecast
Issued by NWS

Home | Current Version | Previous Version | Text Only | Print | Product List | Glossary On
Versions: 1 2 3 4 5 6 7 8 9 10 11 12 13 14 15 16
000
FTPA31 PHFO 230726 AAA
TAFSTU
TAF AMD
NSTU 230726Z 2307/2406 35010KT P6SM VCTS SCT015CB BKN040 OVC080
      TEMPO 2307/2311 2SM +TSRA BKN008CB OVC015
     FM231100 35007KT P6SM VCSH SCT020 BKN040 BKN100=

USA.gov is the U.S. government's official web portal to all federal, state and local government web resources and services.